sensor_id;sensor_type;location;lat;lon;timestamp;P1;durP1;ratioP1;P2;durP2;ratioP2
80115;SDS011;69423;47.608;19.366;2023-11-21T00:00:11;27.20;;;26.97;;
80115;SDS011;69423;47.608;19.366;2023-11-21T00:00:44;28.07;;;27.77;;
80115;SDS011;69423;47.608;19.366;2023-11-21T00:01:16;28.33;;;27.73;;
80115;SDS011;69423;47.608;19.366;2023-11-21T00:01:47;27.27;;;26.70;;
80115;SDS011;69423;47.608;19.366;2023-11-21T00:02:18;27.17;;;26.60;;
80115;SDS011;69423;47.608;19.366;2023-11-21T00:02:49;27.47;;;26.90;;
80115;SDS011;69423;47.608;19.366;2023-11-21T00:03:20;27.70;;;27.20;;
80115;SDS011;69423;47.608;19.366;2023-11-21T00:03:53;28.00;;;27.40;;
80115;SDS011;69423;47.608;19.366;2023-11-21T00:04:25;27.87;;;27.30;;
80115;SDS011;69423;47.608;19.366;2023-11-21T00:04:58;27.80;;;27.17;;
80115;SDS011;69423;47.608;19.366;2023-11-21T00:05:29;28.47;;;27.70;;
80115;SDS011;69423;47.608;19.366;2023-11-21T00:06:00;26.50;;;25.97;;
80115;SDS011;69423;47.608;19.366;2023-11-21T00:06:31;26.57;;;26.17;;
80115;SDS011;69423;47.608;19.366;2023-11-21T00:07:02;26.93;;;26.53;;
80115;SDS011;69423;47.608;19.366;2023-11-21T00:07:33;26.87;;;26.47;;
80115;SDS011;69423;47.608;19.366;2023-11-21T00:08:05;25.73;;;25.17;;
80115;SDS011;69423;47.608;19.366;2023-11-21T00:08:36;24.67;;;24.43;;
80115;SDS011;69423;47.608;19.366;2023-11-21T00:09:08;24.63;;;24.47;;
80115;SDS011;69423;47.608;19.366;2023-11-21T00:09:39;26.23;;;25.70;;
80115;SDS011;69423;47.608;19.366;2023-11-21T00:10:10;25.73;;;25.40;;
80115;SDS011;69423;47.608;19.366;2023-11-21T00:10:44;25.23;;;24.87;;
80115;SDS011;69423;47.608;19.366;2023-11-21T00:11:15;25.77;;;25.47;;
80115;SDS011;69423;47.608;19.366;2023-11-21T00:11:46;25.50;;;25.13;;
80115;SDS011;69423;47.608;19.366;2023-11-21T00:12:17;27.57;;;27.00;;
80115;SDS011;69423;47.608;19.366;2023-11-21T00:12:48;32.90;;;32.17;;
80115;SDS011;69423;47.608;19.366;2023-11-21T00:13:19;28.10;;;27.47;;
80115;SDS011;69423;47.608;19.366;2023-11-21T00:13:51;26.87;;;26.17;;
80115;SDS011;69423;47.608;19.366;2023-11-21T00:14:22;26.50;;;25.93;;
80115;SDS011;69423;47.608;19.366;2023-11-21T00:14:53;25.83;;;25.27;;
80115;SDS011;69423;47.608;19.366;2023-11-21T00:15:24;24.60;;;24.07;;
80115;SDS011;69423;47.608;19.366;2023-11-21T00:15:56;24.43;;;23.97;;
80115;SDS011;69423;47.608;19.366;2023-11-21T00:16:27;23.10;;;22.87;;
80115;SDS011;69423;47.608;19.366;2023-11-21T00:16:59;23.70;;;23.50;;
80115;SDS011;69423;47.608;19.366;2023-11-21T00:17:30;29.17;;;28.67;;
80115;SDS011;69423;47.608;19.366;2023-11-21T00:18:01;30.53;;;30.00;;
80115;SDS011;69423;47.608;19.366;2023-11-21T00:18:32;34.80;;;34.13;;
80115;SDS011;69423;47.608;19.366;2023-11-21T00:19:03;38.67;;;37.60;;
80115;SDS011;69423;47.608;19.366;2023-11-21T00:19:34;35.07;;;33.73;;
80115;SDS011;69423;47.608;19.366;2023-11-21T00:20:06;31.70;;;30.47;;
80115;SDS011;69423;47.608;19.366;2023-11-21T00:20:37;31.73;;;30.80;;
80115;SDS011;69423;47.608;19.366;2023-11-21T00:21:08;32.20;;;31.40;;
80115;SDS011;69423;47.608;19.366;2023-11-21T00:21:43;31.57;;;30.80;;
80115;SDS011;69423;47.608;19.366;2023-11-21T00:22:15;32.27;;;31.33;;
80115;SDS011;69423;47.608;19.366;2023-11-21T00:22:46;33.50;;;32.57;;
80115;SDS011;69423;47.608;19.366;2023-11-21T00:23:18;34.70;;;33.87;;
80115;SDS011;69423;47.608;19.366;2023-11-21T00:23:49;36.80;;;35.93;;
80115;SDS011;69423;47.608;19.366;2023-11-21T00:24:20;36.70;;;35.80;;
80115;SDS011;69423;47.608;19.366;2023-11-21T00:24:51;37.03;;;36.00;;
80115;SDS011;69423;47.608;19.366;2023-11-21T00:25:23;34.90;;;34.17;;
80115;SDS011;69423;47.608;19.366;2023-11-21T00:25:55;35.90;;;35.27;;
80115;SDS011;69423;47.608;19.366;2023-11-21T00:26:26;39.87;;;38.83;;
80115;SDS011;69423;47.608;19.366;2023-11-21T00:26:57;37.13;;;36.03;;
80115;SDS011;69423;47.608;19.366;2023-11-21T00:27:28;34.90;;;33.93;;
80115;SDS011;69423;47.608;19.366;2023-11-21T00:27:59;32.90;;;31.97;;
80115;SDS011;69423;47.608;19.366;2023-11-21T00:28:32;28.63;;;27.90;;
80115;SDS011;69423;47.608;19.366;2023-11-21T00:29:03;27.30;;;26.67;;
80115;SDS011;69423;47.608;19.366;2023-11-21T00:29:34;27.97;;;27.20;;
80115;SDS011;69423;47.608;19.366;2023-11-21T00:30:05;26.87;;;26.33;;
80115;SDS011;69423;47.608;19.366;2023-11-21T00:30:37;25.07;;;24.67;;
80115;SDS011;69423;47.608;19.366;2023-11-21T00:31:08;24.67;;;24.37;;
80115;SDS011;69423;47.608;19.366;2023-11-21T00:31:39;24.60;;;24.30;;
80115;SDS011;69423;47.608;19.366;2023-11-21T00:32:10;24.73;;;24.40;;
80115;SDS011;69423;47.608;19.366;2023-11-21T00:32:41;24.70;;;24.30;;
80115;SDS011;69423;47.608;19.366;2023-11-21T00:33:12;23.93;;;23.67;;
80115;SDS011;69423;47.608;19.366;2023-11-21T00:33:44;24.27;;;23.90;;
80115;SDS011;69423;47.608;19.366;2023-11-21T00:34:15;25.33;;;25.03;;
80115;SDS011;69423;47.608;19.366;2023-11-21T00:34:46;25.83;;;25.53;;
80115;SDS011;69423;47.608;19.366;2023-11-21T00:35:17;27.17;;;26.87;;
80115;SDS011;69423;47.608;19.366;2023-11-21T00:35:48;28.83;;;28.37;;
80115;SDS011;69423;47.608;19.366;2023-11-21T00:36:19;29.50;;;28.90;;
80115;SDS011;69423;47.608;19.366;2023-11-21T00:36:50;29.87;;;29.20;;
80115;SDS011;69423;47.608;19.366;2023-11-21T00:37:21;26.83;;;26.23;;
80115;SDS011;69423;47.608;19.366;2023-11-21T00:37:52;25.03;;;24.50;;
80115;SDS011;69423;47.608;19.366;2023-11-21T00:38:23;24.90;;;24.43;;
80115;SDS011;69423;47.608;19.366;2023-11-21T00:38:54;24.67;;;24.27;;
80115;SDS011;69423;47.608;19.366;2023-11-21T00:39:26;25.17;;;24.73;;
80115;SDS011;69423;47.608;19.366;2023-11-21T00:39:57;25.77;;;25.37;;
80115;SDS011;69423;47.608;19.366;2023-11-21T00:40:28;25.60;;;25.23;;
80115;SDS011;69423;47.608;19.366;2023-11-21T00:40:59;25.57;;;25.27;;
80115;SDS011;69423;47.608;19.366;2023-11-21T00:41:31;24.90;;;24.60;;
80115;SDS011;69423;47.608;19.366;2023-11-21T00:42:02;23.47;;;23.30;;
80115;SDS011;69423;47.608;19.366;2023-11-21T00:42:35;24.00;;;23.87;;
80115;SDS011;69423;47.608;19.366;2023-11-21T00:43:06;24.97;;;24.70;;
80115;SDS011;69423;47.608;19.366;2023-11-21T00:43:37;24.57;;;24.23;;
80115;SDS011;69423;47.608;19.366;2023-11-21T00:44:08;23.93;;;23.63;;
80115;SDS011;69423;47.608;19.366;2023-11-21T00:44:39;25.83;;;25.47;;
80115;SDS011;69423;47.608;19.366;2023-11-21T00:45:10;26.00;;;25.53;;
80115;SDS011;69423;47.608;19.366;2023-11-21T00:45:41;24.80;;;24.27;;
80115;SDS011;69423;47.608;19.366;2023-11-21T00:46:13;23.90;;;23.43;;
80115;SDS011;69423;47.608;19.366;2023-11-21T00:46:44;25.10;;;24.60;;
80115;SDS011;69423;47.608;19.366;2023-11-21T00:47:15;24.50;;;24.03;;
80115;SDS011;69423;47.608;19.366;2023-11-21T00:47:46;24.50;;;24.17;;
80115;SDS011;69423;47.608;19.366;2023-11-21T00:48:17;24.23;;;24.00;;
80115;SDS011;69423;47.608;19.366;2023-11-21T00:48:51;24.73;;;24.47;;
80115;SDS011;69423;47.608;19.366;2023-11-21T00:49:22;26.07;;;25.67;;
80115;SDS011;69423;47.608;19.366;2023-11-21T00:49:53;26.17;;;25.60;;
80115;SDS011;69423;47.608;19.366;2023-11-21T00:50:24;25.00;;;24.53;;
80115;SDS011;69423;47.608;19.366;2023-11-21T00:50:55;23.57;;;23.20;;
80115;SDS011;69423;47.608;19.366;2023-11-21T00:51:26;24.80;;;24.50;;
80115;SDS011;69423;47.608;19.366;2023-11-21T00:51:58;23.53;;;23.20;;
80115;SDS011;69423;47.608;19.366;2023-11-21T00:52:29;23.03;;;22.83;;
80115;SDS011;69423;47.608;19.366;2023-11-21T00:53:00;22.40;;;22.07;;
80115;SDS011;69423;47.608;19.366;2023-11-21T00:53:32;22.27;;;21.87;;
80115;SDS011;69423;47.608;19.366;2023-11-21T00:54:03;22.77;;;22.37;;
80115;SDS011;69423;47.608;19.366;2023-11-21T00:54:34;21.83;;;21.70;;
80115;SDS011;69423;47.608;19.366;2023-11-21T00:55:06;23.30;;;23.23;;
80115;SDS011;69423;47.608;19.366;2023-11-21T00:55:38;24.23;;;24.10;;
80115;SDS011;69423;47.608;19.366;2023-11-21T00:56:12;23.80;;;23.50;;
80115;SDS011;69423;47.608;19.366;2023-11-21T00:56:43;23.77;;;23.50;;
80115;SDS011;69423;47.608;19.366;2023-11-21T00:57:14;24.73;;;24.47;;
80115;SDS011;69423;47.608;19.366;2023-11-21T00:57:45;24.43;;;24.10;;
80115;SDS011;69423;47.608;19.366;2023-11-21T00:58:17;25.20;;;24.70;;
80115;SDS011;69423;47.608;19.366;2023-11-21T00:58:48;25.30;;;24.73;;
80115;SDS011;69423;47.608;19.366;2023-11-21T00:59:22;24.67;;;24.17;;
80115;SDS011;69423;47.608;19.366;2023-11-21T00:59:54;24.33;;;23.93;;
80115;SDS011;69423;47.608;19.366;2023-11-21T01:00:25;24.73;;;24.17;;
80115;SDS011;69423;47.608;19.366;2023-11-21T01:00:56;24.03;;;23.37;;
80115;SDS011;69423;47.608;19.366;2023-11-21T01:01:28;24.17;;;23.70;;
80115;SDS011;69423;47.608;19.366;2023-11-21T01:01:59;23.97;;;23.60;;
80115;SDS011;69423;47.608;19.366;2023-11-21T01:02:31;23.37;;;22.97;;
80115;SDS011;69423;47.608;19.366;2023-11-21T01:03:02;23.73;;;23.33;;
80115;SDS011;69423;47.608;19.366;2023-11-21T01:03:33;23.93;;;23.53;;
80115;SDS011;69423;47.608;19.366;2023-11-21T01:04:04;23.37;;;22.83;;
80115;SDS011;69423;47.608;19.366;2023-11-21T01:04:37;22.93;;;22.30;;
80115;SDS011;69423;47.608;19.366;2023-11-21T01:05:08;23.80;;;23.37;;
80115;SDS011;69423;47.608;19.366;2023-11-21T01:05:39;23.43;;;23.10;;
80115;SDS011;69423;47.608;19.366;2023-11-21T01:06:10;22.30;;;22.07;;
80115;SDS011;69423;47.608;19.366;2023-11-21T01:06:41;22.53;;;22.23;;
80115;SDS011;69423;47.608;19.366;2023-11-21T01:07:12;22.63;;;22.23;;
80115;SDS011;69423;47.608;19.366;2023-11-21T01:07:43;23.20;;;22.77;;
80115;SDS011;69423;47.608;19.366;2023-11-21T01:08:15;23.30;;;22.83;;
80115;SDS011;69423;47.608;19.366;2023-11-21T01:08:46;22.10;;;21.67;;
80115;SDS011;69423;47.608;19.366;2023-11-21T01:09:17;21.83;;;21.50;;
80115;SDS011;69423;47.608;19.366;2023-11-21T01:09:49;22.93;;;22.53;;
80115;SDS011;69423;47.608;19.366;2023-11-21T01:10:20;22.80;;;22.50;;
80115;SDS011;69423;47.608;19.366;2023-11-21T01:10:51;22.03;;;21.83;;
80115;SDS011;69423;47.608;19.366;2023-11-21T01:11:22;21.97;;;21.83;;
80115;SDS011;69423;47.608;19.366;2023-11-21T01:11:53;21.17;;;20.97;;
80115;SDS011;69423;47.608;19.366;2023-11-21T01:12:24;20.90;;;20.73;;
80115;SDS011;69423;47.608;19.366;2023-11-21T01:12:55;19.60;;;19.50;;
80115;SDS011;69423;47.608;19.366;2023-11-21T01:13:28;20.63;;;20.37;;
80115;SDS011;69423;47.608;19.366;2023-11-21T01:14:00;21.37;;;21.07;;
80115;SDS011;69423;47.608;19.366;2023-11-21T01:14:31;21.07;;;20.77;;
80115;SDS011;69423;47.608;19.366;2023-11-21T01:15:02;20.40;;;20.10;;
80115;SDS011;69423;47.608;19.366;2023-11-21T01:15:34;20.97;;;20.77;;
80115;SDS011;69423;47.608;19.366;2023-11-21T01:16:05;20.60;;;20.40;;
80115;SDS011;69423;47.608;19.366;2023-11-21T01:16:36;20.07;;;19.83;;
80115;SDS011;69423;47.608;19.366;2023-11-21T01:17:08;20.23;;;20.13;;
80115;SDS011;69423;47.608;19.366;2023-11-21T01:17:39;20.77;;;20.67;;
80115;SDS011;69423;47.608;19.366;2023-11-21T01:18:11;21.37;;;21.03;;
80115;SDS011;69423;47.608;19.366;2023-11-21T01:18:42;21.60;;;21.33;;
80115;SDS011;69423;47.608;19.366;2023-11-21T01:19:14;21.07;;;20.60;;
80115;SDS011;69423;47.608;19.366;2023-11-21T01:19:45;21.03;;;20.60;;
80115;SDS011;69423;47.608;19.366;2023-11-21T01:20:16;21.43;;;21.13;;
80115;SDS011;69423;47.608;19.366;2023-11-21T01:20:47;21.43;;;21.17;;
80115;SDS011;69423;47.608;19.366;2023-11-21T01:21:18;21.07;;;20.87;;
80115;SDS011;69423;47.608;19.366;2023-11-21T01:21:49;22.37;;;22.03;;
80115;SDS011;69423;47.608;19.366;2023-11-21T01:22:22;21.40;;;21.10;;
80115;SDS011;69423;47.608;19.366;2023-11-21T01:22:56;21.53;;;21.27;;
80115;SDS011;69423;47.608;19.366;2023-11-21T01:23:27;21.17;;;21.03;;
80115;SDS011;69423;47.608;19.366;2023-11-21T01:23:58;20.90;;;20.87;;
80115;SDS011;69423;47.608;19.366;2023-11-21T01:24:29;22.03;;;21.77;;
80115;SDS011;69423;47.608;19.366;2023-11-21T01:25:00;21.63;;;21.17;;
80115;SDS011;69423;47.608;19.366;2023-11-21T01:25:31;21.23;;;20.97;;
80115;SDS011;69423;47.608;19.366;2023-11-21T01:26:02;21.77;;;21.70;;
80115;SDS011;69423;47.608;19.366;2023-11-21T01:26:33;21.40;;;21.37;;
80115;SDS011;69423;47.608;19.366;2023-11-21T01:27:05;21.90;;;21.83;;
80115;SDS011;69423;47.608;19.366;2023-11-21T01:27:36;22.23;;;22.10;;
80115;SDS011;69423;47.608;19.366;2023-11-21T01:28:10;22.33;;;22.07;;
80115;SDS011;69423;47.608;19.366;2023-11-21T01:28:41;22.40;;;22.03;;
80115;SDS011;69423;47.608;19.366;2023-11-21T01:29:13;21.60;;;21.27;;
80115;SDS011;69423;47.608;19.366;2023-11-21T01:29:44;21.60;;;21.27;;
80115;SDS011;69423;47.608;19.366;2023-11-21T01:30:15;22.20;;;21.80;;
80115;SDS011;69423;47.608;19.366;2023-11-21T01:30:47;22.60;;;22.20;;
80115;SDS011;69423;47.608;19.366;2023-11-21T01:31:18;22.13;;;21.83;;
80115;SDS011;69423;47.608;19.366;2023-11-21T01:31:50;20.50;;;20.23;;
80115;SDS011;69423;47.608;19.366;2023-11-21T01:32:22;19.27;;;19.00;;
80115;SDS011;69423;47.608;19.366;2023-11-21T01:32:53;20.43;;;20.13;;
80115;SDS011;69423;47.608;19.366;2023-11-21T01:33:24;21.17;;;20.80;;
80115;SDS011;69423;47.608;19.366;2023-11-21T01:33:56;20.70;;;20.43;;
80115;SDS011;69423;47.608;19.366;2023-11-21T01:34:27;20.63;;;20.57;;
80115;SDS011;69423;47.608;19.366;2023-11-21T01:34:59;20.90;;;20.77;;
80115;SDS011;69423;47.608;19.366;2023-11-21T01:35:30;20.77;;;20.53;;
80115;SDS011;69423;47.608;19.366;2023-11-21T01:36:01;20.93;;;20.60;;
80115;SDS011;69423;47.608;19.366;2023-11-21T01:36:32;21.33;;;21.03;;
80115;SDS011;69423;47.608;19.366;2023-11-21T01:37:04;21.17;;;21.00;;
80115;SDS011;69423;47.608;19.366;2023-11-21T01:37:39;20.40;;;20.27;;
80115;SDS011;69423;47.608;19.366;2023-11-21T01:38:10;20.00;;;19.97;;
80115;SDS011;69423;47.608;19.366;2023-11-21T01:38:41;20.97;;;20.83;;
80115;SDS011;69423;47.608;19.366;2023-11-21T01:39:12;20.87;;;20.57;;
80115;SDS011;69423;47.608;19.366;2023-11-21T01:39:46;20.97;;;20.63;;
80115;SDS011;69423;47.608;19.366;2023-11-21T01:40:17;22.30;;;21.80;;
80115;SDS011;69423;47.608;19.366;2023-11-21T01:40:48;21.60;;;21.23;;
80115;SDS011;69423;47.608;19.366;2023-11-21T01:41:19;20.57;;;20.30;;
80115;SDS011;69423;47.608;19.366;2023-11-21T01:41:51;19.80;;;19.67;;
80115;SDS011;69423;47.608;19.366;2023-11-21T01:42:22;20.10;;;19.97;;
80115;SDS011;69423;47.608;19.366;2023-11-21T01:42:54;19.67;;;19.63;;
80115;SDS011;69423;47.608;19.366;2023-11-21T01:43:25;18.97;;;18.87;;
80115;SDS011;69423;47.608;19.366;2023-11-21T01:43:56;19.33;;;19.23;;
80115;SDS011;69423;47.608;19.366;2023-11-21T01:44:27;20.60;;;20.47;;
80115;SDS011;69423;47.608;19.366;2023-11-21T01:44:58;20.57;;;20.33;;
80115;SDS011;69423;47.608;19.366;2023-11-21T01:45:29;20.57;;;20.43;;
80115;SDS011;69423;47.608;19.366;2023-11-21T01:46:04;20.57;;;20.30;;
80115;SDS011;69423;47.608;19.366;2023-11-21T01:46:36;20.10;;;19.87;;
80115;SDS011;69423;47.608;19.366;2023-11-21T01:47:09;19.70;;;19.50;;
80115;SDS011;69423;47.608;19.366;2023-11-21T01:47:41;20.10;;;19.83;;
80115;SDS011;69423;47.608;19.366;2023-11-21T01:48:15;19.17;;;18.93;;
80115;SDS011;69423;47.608;19.366;2023-11-21T01:48:48;19.73;;;19.50;;
80115;SDS011;69423;47.608;19.366;2023-11-21T01:49:19;19.33;;;19.23;;
80115;SDS011;69423;47.608;19.366;2023-11-21T01:49:50;20.77;;;20.60;;
80115;SDS011;69423;47.608;19.366;2023-11-21T01:50:22;20.87;;;20.70;;
80115;SDS011;69423;47.608;19.366;2023-11-21T01:50:53;19.87;;;19.60;;
80115;SDS011;69423;47.608;19.366;2023-11-21T01:51:25;18.00;;;17.77;;
80115;SDS011;69423;47.608;19.366;2023-11-21T01:51:57;16.07;;;16.07;;
80115;SDS011;69423;47.608;19.366;2023-11-21T01:52:28;17.17;;;17.07;;
80115;SDS011;69423;47.608;19.366;2023-11-21T01:53:00;16.37;;;16.17;;
80115;SDS011;69423;47.608;19.366;2023-11-21T01:53:32;16.87;;;16.80;;
80115;SDS011;69423;47.608;19.366;2023-11-21T01:54:03;16.80;;;16.80;;
80115;SDS011;69423;47.608;19.366;2023-11-21T01:54:35;16.93;;;16.87;;
80115;SDS011;69423;47.608;19.366;2023-11-21T01:55:07;17.60;;;17.43;;
80115;SDS011;69423;47.608;19.366;2023-11-21T01:55:40;18.20;;;18.17;;
80115;SDS011;69423;47.608;19.366;2023-11-21T01:56:13;18.20;;;18.20;;
80115;SDS011;69423;47.608;19.366;2023-11-21T01:56:45;17.50;;;17.47;;
80115;SDS011;69423;47.608;19.366;2023-11-21T01:57:16;16.00;;;15.90;;
80115;SDS011;69423;47.608;19.366;2023-11-21T01:57:50;15.37;;;15.27;;
80115;SDS011;69423;47.608;19.366;2023-11-21T01:58:22;16.30;;;16.17;;
80115;SDS011;69423;47.608;19.366;2023-11-21T01:58:53;17.03;;;16.90;;
80115;SDS011;69423;47.608;19.366;2023-11-21T01:59:24;16.80;;;16.70;;
80115;SDS011;69423;47.608;19.366;2023-11-21T01:59:58;16.67;;;16.53;;
80115;SDS011;69423;47.608;19.366;2023-11-21T02:00:31;15.93;;;15.73;;
80115;SDS011;69423;47.608;19.366;2023-11-21T02:01:04;16.07;;;15.87;;
80115;SDS011;69423;47.608;19.366;2023-11-21T02:01:35;16.23;;;16.03;;
80115;SDS011;69423;47.608;19.366;2023-11-21T02:02:07;16.73;;;16.53;;
80115;SDS011;69423;47.608;19.366;2023-11-21T02:02:39;16.43;;;16.30;;
80115;SDS011;69423;47.608;19.366;2023-11-21T02:03:10;14.80;;;14.67;;
80115;SDS011;69423;47.608;19.366;2023-11-21T02:03:42;14.00;;;13.83;;
80115;SDS011;69423;47.608;19.366;2023-11-21T02:04:13;14.57;;;14.37;;
80115;SDS011;69423;47.608;19.366;2023-11-21T02:04:45;15.03;;;14.83;;
80115;SDS011;69423;47.608;19.366;2023-11-21T02:05:17;15.47;;;15.27;;
80115;SDS011;69423;47.608;19.366;2023-11-21T02:05:49;15.17;;;15.00;;
80115;SDS011;69423;47.608;19.366;2023-11-21T02:06:21;14.77;;;14.63;;
80115;SDS011;69423;47.608;19.366;2023-11-21T02:06:52;15.57;;;15.33;;
80115;SDS011;69423;47.608;19.366;2023-11-21T02:07:24;16.73;;;16.37;;
80115;SDS011;69423;47.608;19.366;2023-11-21T02:07:55;16.00;;;15.60;;
80115;SDS011;69423;47.608;19.366;2023-11-21T02:08:27;15.93;;;15.60;;
80115;SDS011;69423;47.608;19.366;2023-11-21T02:08:58;15.07;;;14.77;;
80115;SDS011;69423;47.608;19.366;2023-11-21T02:09:30;14.50;;;14.30;;
80115;SDS011;69423;47.608;19.366;2023-11-21T02:10:01;15.63;;;15.43;;
80115;SDS011;69423;47.608;19.366;2023-11-21T02:10:32;15.03;;;14.83;;
80115;SDS011;69423;47.608;19.366;2023-11-21T02:11:04;14.90;;;14.67;;
80115;SDS011;69423;47.608;19.366;2023-11-21T02:11:35;15.53;;;15.23;;
80115;SDS011;69423;47.608;19.366;2023-11-21T02:12:09;15.13;;;14.90;;
80115;SDS011;69423;47.608;19.366;2023-11-21T02:12:41;14.57;;;14.37;;
80115;SDS011;69423;47.608;19.366;2023-11-21T02:13:13;14.83;;;14.63;;
80115;SDS011;69423;47.608;19.366;2023-11-21T02:13:44;16.70;;;16.53;;
80115;SDS011;69423;47.608;19.366;2023-11-21T02:14:16;17.10;;;16.90;;
80115;SDS011;69423;47.608;19.366;2023-11-21T02:14:50;17.60;;;17.40;;
80115;SDS011;69423;47.608;19.366;2023-11-21T02:15:21;18.10;;;17.93;;
80115;SDS011;69423;47.608;19.366;2023-11-21T02:15:53;19.90;;;19.67;;
80115;SDS011;69423;47.608;19.366;2023-11-21T02:16:24;19.83;;;19.53;;
80115;SDS011;69423;47.608;19.366;2023-11-21T02:16:56;18.43;;;18.27;;
80115;SDS011;69423;47.608;19.366;2023-11-21T02:17:27;18.03;;;17.90;;
80115;SDS011;69423;47.608;19.366;2023-11-21T02:17:58;18.40;;;18.13;;
80115;SDS011;69423;47.608;19.366;2023-11-21T02:18:31;18.77;;;18.50;;
80115;SDS011;69423;47.608;19.366;2023-11-21T02:19:02;18.80;;;18.50;;
80115;SDS011;69423;47.608;19.366;2023-11-21T02:19:39;18.97;;;18.70;;
80115;SDS011;69423;47.608;19.366;2023-11-21T02:20:11;18.63;;;18.40;;
80115;SDS011;69423;47.608;19.366;2023-11-21T02:20:46;21.57;;;21.30;;
80115;SDS011;69423;47.608;19.366;2023-11-21T02:21:17;21.80;;;21.67;;
80115;SDS011;69423;47.608;19.366;2023-11-21T02:21:50;21.97;;;21.90;;
80115;SDS011;69423;47.608;19.366;2023-11-21T02:22:23;22.23;;;22.07;;
80115;SDS011;69423;47.608;19.366;2023-11-21T02:22:59;22.93;;;22.70;;
80115;SDS011;69423;47.608;19.366;2023-11-21T02:23:31;23.53;;;23.10;;
80115;SDS011;69423;47.608;19.366;2023-11-21T02:24:02;22.60;;;22.23;;
80115;SDS011;69423;47.608;19.366;2023-11-21T02:24:33;20.47;;;20.40;;
80115;SDS011;69423;47.608;19.366;2023-11-21T02:25:04;19.90;;;19.77;;
80115;SDS011;69423;47.608;19.366;2023-11-21T02:25:36;21.43;;;21.27;;
80115;SDS011;69423;47.608;19.366;2023-11-21T02:26:07;21.53;;;21.40;;
80115;SDS011;69423;47.608;19.366;2023-11-21T02:26:40;22.00;;;21.93;;
80115;SDS011;69423;47.608;19.366;2023-11-21T02:27:13;24.93;;;24.67;;
80115;SDS011;69423;47.608;19.366;2023-11-21T02:27:51;25.10;;;24.80;;
80115;SDS011;69423;47.608;19.366;2023-11-21T02:28:22;25.30;;;24.93;;
80115;SDS011;69423;47.608;19.366;2023-11-21T02:28:56;25.47;;;25.07;;
80115;SDS011;69423;47.608;19.366;2023-11-21T02:29:28;24.97;;;24.50;;
80115;SDS011;69423;47.608;19.366;2023-11-21T02:30:00;26.10;;;25.77;;
80115;SDS011;69423;47.608;19.366;2023-11-21T02:30:31;27.07;;;26.73;;
80115;SDS011;69423;47.608;19.366;2023-11-21T02:31:03;28.53;;;28.03;;
80115;SDS011;69423;47.608;19.366;2023-11-21T02:31:35;28.47;;;28.00;;
80115;SDS011;69423;47.608;19.366;2023-11-21T02:32:06;28.43;;;27.97;;
80115;SDS011;69423;47.608;19.366;2023-11-21T02:32:37;27.13;;;26.80;;
80115;SDS011;69423;47.608;19.366;2023-11-21T02:33:08;27.87;;;27.70;;
80115;SDS011;69423;47.608;19.366;2023-11-21T02:33:40;28.87;;;28.77;;
80115;SDS011;69423;47.608;19.366;2023-11-21T02:34:11;29.90;;;29.73;;
80115;SDS011;69423;47.608;19.366;2023-11-21T02:34:43;28.80;;;28.43;;
80115;SDS011;69423;47.608;19.366;2023-11-21T02:35:14;29.10;;;28.40;;
80115;SDS011;69423;47.608;19.366;2023-11-21T02:35:48;28.33;;;27.67;;
80115;SDS011;69423;47.608;19.366;2023-11-21T02:36:19;26.67;;;26.23;;
80115;SDS011;69423;47.608;19.366;2023-11-21T02:36:52;26.47;;;26.13;;
80115;SDS011;69423;47.608;19.366;2023-11-21T02:37:24;28.30;;;27.97;;
80115;SDS011;69423;47.608;19.366;2023-11-21T02:37:55;29.97;;;29.53;;
80115;SDS011;69423;47.608;19.366;2023-11-21T02:38:26;28.87;;;28.53;;
80115;SDS011;69423;47.608;19.366;2023-11-21T02:38:57;27.87;;;27.60;;
80115;SDS011;69423;47.608;19.366;2023-11-21T02:39:28;27.00;;;26.70;;
80115;SDS011;69423;47.608;19.366;2023-11-21T02:39:59;27.33;;;26.93;;
80115;SDS011;69423;47.608;19.366;2023-11-21T02:40:30;28.43;;;27.93;;
80115;SDS011;69423;47.608;19.366;2023-11-21T02:41:01;28.30;;;27.80;;
80115;SDS011;69423;47.608;19.366;2023-11-21T02:41:32;28.03;;;27.67;;
80115;SDS011;69423;47.608;19.366;2023-11-21T02:42:05;28.53;;;28.37;;
80115;SDS011;69423;47.608;19.366;2023-11-21T02:42:36;27.23;;;27.03;;
80115;SDS011;69423;47.608;19.366;2023-11-21T02:43:07;27.37;;;27.13;;
80115;SDS011;69423;47.608;19.366;2023-11-21T02:43:38;27.73;;;27.43;;
80115;SDS011;69423;47.608;19.366;2023-11-21T02:44:09;26.43;;;26.13;;
80115;SDS011;69423;47.608;19.366;2023-11-21T02:44:41;26.50;;;26.20;;
80115;SDS011;69423;47.608;19.366;2023-11-21T02:45:12;26.60;;;26.47;;
80115;SDS011;69423;47.608;19.366;2023-11-21T02:45:47;26.37;;;26.23;;
80115;SDS011;69423;47.608;19.366;2023-11-21T02:46:18;27.10;;;26.83;;
80115;SDS011;69423;47.608;19.366;2023-11-21T02:46:49;26.20;;;25.80;;
80115;SDS011;69423;47.608;19.366;2023-11-21T02:47:20;27.20;;;26.60;;
80115;SDS011;69423;47.608;19.366;2023-11-21T02:47:51;27.50;;;26.87;;
80115;SDS011;69423;47.608;19.366;2023-11-21T02:48:23;25.83;;;25.33;;
80115;SDS011;69423;47.608;19.366;2023-11-21T02:48:56;25.77;;;25.37;;
80115;SDS011;69423;47.608;19.366;2023-11-21T02:49:28;27.40;;;27.00;;
80115;SDS011;69423;47.608;19.366;2023-11-21T02:49:59;27.53;;;27.10;;
80115;SDS011;69423;47.608;19.366;2023-11-21T02:50:31;27.23;;;26.97;;
80115;SDS011;69423;47.608;19.366;2023-11-21T02:51:02;27.43;;;27.30;;
80115;SDS011;69423;47.608;19.366;2023-11-21T02:51:33;26.80;;;26.67;;
80115;SDS011;69423;47.608;19.366;2023-11-21T02:52:04;27.43;;;27.20;;
80115;SDS011;69423;47.608;19.366;2023-11-21T02:52:35;26.57;;;26.40;;
80115;SDS011;69423;47.608;19.366;2023-11-21T02:53:07;26.93;;;26.70;;
80115;SDS011;69423;47.608;19.366;2023-11-21T02:53:38;27.87;;;27.50;;
80115;SDS011;69423;47.608;19.366;2023-11-21T02:54:09;28.47;;;28.03;;
80115;SDS011;69423;47.608;19.366;2023-11-21T02:54:40;26.07;;;25.67;;
80115;SDS011;69423;47.608;19.366;2023-11-21T02:55:11;26.53;;;26.13;;
80115;SDS011;69423;47.608;19.366;2023-11-21T02:55:42;26.80;;;26.43;;
80115;SDS011;69423;47.608;19.366;2023-11-21T02:56:13;26.20;;;26.10;;
80115;SDS011;69423;47.608;19.366;2023-11-21T02:56:44;26.47;;;26.43;;
80115;SDS011;69423;47.608;19.366;2023-11-21T02:57:16;27.43;;;27.33;;
80115;SDS011;69423;47.608;19.366;2023-11-21T02:57:47;26.27;;;25.97;;
80115;SDS011;69423;47.608;19.366;2023-11-21T02:58:18;26.27;;;25.93;;
80115;SDS011;69423;47.608;19.366;2023-11-21T02:58:49;27.10;;;26.77;;
80115;SDS011;69423;47.608;19.366;2023-11-21T02:59:20;26.27;;;25.90;;
80115;SDS011;69423;47.608;19.366;2023-11-21T02:59:51;27.20;;;26.63;;
80115;SDS011;69423;47.608;19.366;2023-11-21T03:00:22;27.23;;;26.73;;
80115;SDS011;69423;47.608;19.366;2023-11-21T03:00:54;27.60;;;27.20;;
80115;SDS011;69423;47.608;19.366;2023-11-21T03:01:27;27.03;;;26.60;;
80115;SDS011;69423;47.608;19.366;2023-11-21T03:01:58;26.40;;;26.00;;